createdAt,value
2023-05-19T00:02:12.532Z,89.27
2023-05-19T00:04:41.724Z,90.90
2023-05-19T00:07:10.647Z,91.60
2023-05-19T00:09:41.083Z,91.51
2023-05-19T00:12:10.898Z,91.46
2023-05-19T00:14:39.702Z,92.62
2023-05-19T00:17:09.660Z,93.05
2023-05-19T00:19:38.171Z,93.28
2023-05-19T00:22:06.521Z,93.63
2023-05-19T00:24:34.877Z,93.09
2023-05-19T00:27:04.836Z,93.29
2023-05-19T00:29:33.730Z,93.25
2023-05-19T00:32:02.513Z,92.75
2023-05-19T00:34:30.837Z,93.38
2023-05-19T00:36:59.124Z,93.97
2023-05-19T00:39:27.469Z,93.89
2023-05-19T00:41:55.843Z,94.12
2023-05-19T00:44:25.848Z,94.71
2023-05-19T00:46:54.210Z,94.62
2023-05-19T00:49:22.856Z,93.71
2023-05-19T00:51:51.701Z,94.19
2023-05-19T00:54:20.517Z,93.51
2023-05-19T00:56:49.924Z,94.09
2023-05-19T00:59:18.822Z,94.37
2023-05-19T01:01:49.350Z,94.43
2023-05-19T01:04:17.723Z,95.40
2023-05-19T01:06:46.084Z,96.65
2023-05-19T01:09:14.554Z,95.82
2023-05-19T01:11:43.212Z,96.06
2023-05-19T01:14:11.800Z,95.97
2023-05-19T01:16:41.714Z,96.05
2023-05-19T01:19:16.302Z,95.96
2023-05-19T01:22:04.080Z,96.67
2023-05-19T01:25:10.983Z,96.83
2023-05-19T01:27:48.539Z,96.86
2023-05-19T01:30:32.153Z,96.13
2023-05-19T01:33:01.817Z,96.21
2023-05-19T01:35:30.223Z,96.36
2023-05-19T01:38:00.506Z,96.57
2023-05-19T01:40:29.105Z,97.09
2023-05-19T01:42:59.629Z,97.10
2023-05-19T01:45:28.167Z,98.28
2023-05-19T01:47:58.853Z,98.21
2023-05-19T01:50:27.278Z,98.47
2023-05-19T01:52:56.459Z,98.42
2023-05-19T01:55:25.404Z,98.53
2023-05-19T01:58:04.131Z,98.95
2023-05-19T02:00:38.540Z,99.37
2023-05-19T02:03:12.909Z,100.00
2023-05-19T02:05:45.578Z,99.95
2023-05-19T02:08:30.932Z,100.00
2023-05-19T02:11:05.119Z,100.00
2023-05-19T02:13:35.754Z,100.00
2023-05-19T02:16:06.068Z,100.00
2023-05-19T02:18:36.701Z,100.00
2023-05-19T02:21:05.187Z,100.00
2023-05-19T02:23:33.713Z,100.00
2023-05-19T02:26:02.078Z,100.00
2023-05-19T02:28:30.333Z,100.00
2023-05-19T02:30:59.944Z,100.00
2023-05-19T02:33:31.603Z,100.00
2023-05-19T02:36:01.343Z,100.00
2023-05-19T02:38:30.470Z,100.00
2023-05-19T02:40:59.182Z,100.00
2023-05-19T02:43:27.605Z,100.00
2023-05-19T02:45:56.423Z,100.00
2023-05-19T02:48:25.053Z,100.00
2023-05-19T02:50:53.341Z,100.00
2023-05-19T02:53:23.158Z,100.00
2023-05-19T02:55:51.540Z,100.00
2023-05-19T02:58:20.930Z,100.00
2023-05-19T03:00:49.414Z,100.00
2023-05-19T03:03:18.262Z,100.00
2023-05-19T03:05:47.396Z,100.00
2023-05-19T03:08:15.732Z,100.00
2023-05-19T03:10:45.451Z,100.00
2023-05-19T03:13:13.795Z,100.00
2023-05-19T03:15:42.831Z,100.00
2023-05-19T03:18:12.102Z,100.00
2023-05-19T03:20:42.519Z,100.00
2023-05-19T03:23:10.850Z,100.00
2023-05-19T03:25:39.088Z,100.00
2023-05-19T03:28:09.072Z,100.00
2023-05-19T03:30:37.407Z,100.00
2023-05-19T03:33:13.523Z,100.00
2023-05-19T03:35:42.354Z,100.00
2023-05-19T03:38:10.610Z,100.00
2023-05-19T03:40:41.439Z,100.00
2023-05-19T03:43:14.495Z,100.00
2023-05-19T03:45:48.547Z,100.00
2023-05-19T03:48:37.116Z,100.00
2023-05-19T03:51:20.498Z,100.00
2023-05-19T03:53:52.085Z,100.00
2023-05-19T03:56:24.178Z,100.00
2023-05-19T03:58:54.859Z,100.00
2023-05-19T04:01:23.134Z,100.00
2023-05-19T04:03:51.413Z,100.00
2023-05-19T04:06:20.224Z,100.00
2023-05-19T04:08:48.482Z,100.00
2023-05-19T04:11:20.041Z,100.00
2023-05-19T04:13:48.347Z,100.00
2023-05-19T04:16:18.132Z,100.00
2023-05-19T04:18:46.651Z,100.00
2023-05-19T04:21:15.028Z,100.00
2023-05-19T04:23:43.878Z,100.00
2023-05-19T04:26:12.352Z,100.00
2023-05-19T04:28:42.460Z,100.00
2023-05-19T04:31:11.194Z,100.00
2023-05-19T04:33:41.394Z,100.00
2023-05-19T04:36:10.800Z,100.00
2023-05-19T04:38:41.994Z,100.00
2023-05-19T04:41:12.630Z,100.00
2023-05-19T04:43:44.816Z,100.00
2023-05-19T04:46:14.820Z,100.00
2023-05-19T04:48:47.751Z,100.00
2023-05-19T04:51:17.762Z,100.00
2023-05-19T04:53:46.512Z,100.00
2023-05-19T04:56:15.878Z,100.00
2023-05-19T04:58:46.873Z,100.00
2023-05-19T05:01:15.932Z,100.00
2023-05-19T05:03:46.564Z,100.00
2023-05-19T05:06:15.409Z,100.00
2023-05-19T05:08:44.059Z,100.00
2023-05-19T05:11:13.225Z,100.00
2023-05-19T05:13:42.021Z,100.00
2023-05-19T05:16:12.418Z,100.00
2023-05-19T05:18:44.328Z,100.00
2023-05-19T05:21:15.588Z,100.00
2023-05-19T05:23:44.455Z,100.00
2023-05-19T05:26:18.302Z,100.00
2023-05-19T05:28:48.444Z,100.00
2023-05-19T05:31:17.268Z,100.00
2023-05-19T05:33:46.603Z,100.00
2023-05-19T05:36:17.480Z,100.00
2023-05-19T05:38:45.944Z,100.00
2023-05-19T05:41:14.252Z,100.00
2023-05-19T05:43:42.629Z,100.00
2023-05-19T05:46:11.177Z,100.00
2023-05-19T05:48:42.128Z,100.00
2023-05-19T05:51:11.757Z,100.00
2023-05-19T05:53:44.313Z,100.00
2023-05-19T05:56:15.508Z,100.00
2023-05-19T05:58:50.740Z,100.00
2023-05-19T06:01:19.105Z,100.00
2023-05-19T06:03:47.805Z,100.00
2023-05-19T06:06:21.332Z,97.29
2023-05-19T06:08:51.130Z,94.71
2023-05-19T06:11:21.541Z,88.00
2023-05-19T06:13:50.374Z,88.85
2023-05-19T06:16:37.359Z,91.78
2023-05-19T06:19:05.965Z,88.92
2023-05-19T06:21:34.376Z,88.72
2023-05-19T06:24:04.097Z,86.17
2023-05-19T06:26:32.972Z,83.73
2023-05-19T06:29:01.975Z,81.98
2023-05-19T06:31:31.548Z,82.01
2023-05-19T06:34:06.478Z,80.80
2023-05-19T06:36:35.307Z,82.27
2023-05-19T06:39:05.641Z,81.14
2023-05-19T06:41:34.822Z,77.10
2023-05-19T06:44:04.546Z,73.32
2023-05-19T06:46:35.028Z,76.09
2023-05-19T06:49:03.458Z,75.07
2023-05-19T06:51:35.978Z,75.63
2023-05-19T06:54:05.953Z,75.75
2023-05-19T06:56:34.290Z,74.32
2023-05-19T06:59:02.843Z,74.02
2023-05-19T07:01:35.730Z,74.38
2023-05-19T07:04:05.387Z,75.93
2023-05-19T07:06:34.034Z,73.55
2023-05-19T07:09:05.282Z,76.06
2023-05-19T07:11:35.789Z,75.02
2023-05-19T07:14:04.530Z,76.69
2023-05-19T07:16:33.750Z,73.09
2023-05-19T07:19:02.142Z,69.06
2023-05-19T07:21:30.967Z,71.93
2023-05-19T07:23:59.330Z,69.95
2023-05-19T07:26:30.049Z,68.46
2023-05-19T07:28:59.725Z,69.91
2023-05-19T07:31:28.060Z,67.19
2023-05-19T07:33:56.320Z,68.94
2023-05-19T07:36:24.975Z,69.60
2023-05-19T07:38:53.296Z,71.06
2023-05-19T07:41:21.652Z,69.79
2023-05-19T07:43:49.982Z,66.79
2023-05-19T07:46:19.777Z,68.06
2023-05-19T07:48:48.445Z,68.93
2023-05-19T07:51:17.059Z,70.99
2023-05-19T07:53:47.131Z,69.37
2023-05-19T07:56:15.521Z,70.44
2023-05-19T07:58:43.759Z,68.41
2023-05-19T08:01:12.436Z,67.70
2023-05-19T08:03:42.115Z,67.30
2023-05-19T08:06:10.400Z,67.87
2023-05-19T08:08:38.712Z,67.78
2023-05-19T08:11:07.052Z,68.73
2023-05-19T08:13:35.903Z,68.40
2023-05-19T08:16:05.339Z,68.48
2023-05-19T08:18:33.669Z,67.11
2023-05-19T08:21:03.500Z,66.25
2023-05-19T08:23:31.904Z,66.23
2023-05-19T08:26:00.145Z,64.08
2023-05-19T08:28:28.361Z,65.75
2023-05-19T08:30:57.260Z,66.70
2023-05-19T08:33:25.606Z,67.64
2023-05-19T08:35:55.484Z,65.24
2023-05-19T08:38:25.147Z,67.37
2023-05-19T08:40:53.554Z,66.48
2023-05-19T08:43:22.456Z,64.45
2023-05-19T08:45:50.915Z,64.97
2023-05-19T08:48:19.553Z,62.82
2023-05-19T08:50:58.342Z,64.02
2023-05-19T08:53:33.329Z,64.27
2023-05-19T08:56:10.218Z,61.34
2023-05-19T08:58:40.100Z,64.05
2023-05-19T09:01:09.418Z,63.91
2023-05-19T09:03:38.452Z,62.00
2023-05-19T09:06:08.846Z,60.88
2023-05-19T09:08:38.708Z,60.94
2023-05-19T09:11:07.400Z,60.73
2023-05-19T09:13:35.758Z,58.47
2023-05-19T09:16:04.401Z,60.03
2023-05-19T09:18:33.113Z,60.59
2023-05-19T09:21:03.208Z,61.36
2023-05-19T09:23:33.573Z,60.95
2023-05-19T09:26:07.737Z,61.24
2023-05-19T09:28:37.941Z,57.61
2023-05-19T09:31:07.114Z,57.81
2023-05-19T09:33:36.309Z,58.23
2023-05-19T09:36:06.185Z,60.44
2023-05-19T09:38:34.875Z,59.92
2023-05-19T09:41:06.017Z,60.38
2023-05-19T09:43:34.631Z,56.96
2023-05-19T09:46:05.222Z,57.75
2023-05-19T09:48:33.600Z,60.05
2023-05-19T09:51:02.473Z,58.43
2023-05-19T09:53:34.547Z,57.15
2023-05-19T09:56:04.595Z,57.95
2023-05-19T09:58:34.767Z,55.81
2023-05-19T10:01:03.264Z,52.86
2023-05-19T10:03:31.749Z,53.61
2023-05-19T10:06:00.475Z,56.26
2023-05-19T10:08:30.381Z,48.56
2023-05-19T10:10:58.985Z,51.66
2023-05-19T10:13:28.950Z,50.57
2023-05-19T10:15:59.421Z,51.27
2023-05-19T10:18:30.055Z,50.96
2023-05-19T10:20:58.822Z,50.00
2023-05-19T10:23:27.132Z,52.76
2023-05-19T10:25:56.812Z,50.56
2023-05-19T10:28:28.098Z,55.04
2023-05-19T10:30:58.856Z,52.87
2023-05-19T10:33:31.150Z,54.38
2023-05-19T10:36:08.699Z,52.39
2023-05-19T10:38:43.073Z,50.66
2023-05-19T10:41:14.383Z,51.15
2023-05-19T10:43:49.401Z,52.76
2023-05-19T10:46:19.470Z,53.05
2023-05-19T10:48:47.773Z,51.85
2023-05-19T10:51:16.334Z,54.04
2023-05-19T10:53:47.308Z,52.79
2023-05-19T10:56:30.352Z,52.00
2023-05-19T10:58:58.967Z,52.05
2023-05-19T11:01:33.510Z,52.11
2023-05-19T11:04:06.588Z,50.85
2023-05-19T11:06:35.846Z,52.94
2023-05-19T11:09:11.794Z,54.03
2023-05-19T11:11:48.014Z,51.83
2023-05-19T11:14:18.154Z,53.73
2023-05-19T11:16:49.512Z,51.31
2023-05-19T11:19:21.593Z,53.27
2023-05-19T11:21:50.673Z,54.25
2023-05-19T11:24:37.816Z,53.70
2023-05-19T11:27:22.486Z,50.59
2023-05-19T11:29:51.310Z,49.20
2023-05-19T11:32:21.650Z,50.93
2023-05-19T11:34:50.051Z,51.82
2023-05-19T11:37:18.378Z,50.54
2023-05-19T11:39:47.463Z,51.46
2023-05-19T11:42:15.788Z,48.65
2023-05-19T11:44:46.189Z,47.38
2023-05-19T11:47:15.196Z,50.90
2023-05-19T11:49:46.289Z,49.98
2023-05-19T11:52:14.883Z,49.80
2023-05-19T11:54:43.206Z,50.25
2023-05-19T11:57:11.679Z,50.66
2023-05-19T11:59:43.901Z,50.73
2023-05-19T12:02:17.813Z,52.38
2023-05-19T12:04:47.642Z,52.17
2023-05-19T12:07:18.490Z,53.06
2023-05-19T12:09:47.234Z,52.45
2023-05-19T12:12:17.066Z,53.96
2023-05-19T12:14:45.497Z,54.34
2023-05-19T12:17:14.561Z,53.02
2023-05-19T12:19:44.547Z,52.80
2023-05-19T12:22:14.215Z,52.76
2023-05-19T12:24:43.054Z,53.71
2023-05-19T12:27:19.564Z,51.54
2023-05-19T12:29:51.826Z,51.96
2023-05-19T12:32:20.590Z,52.10
2023-05-19T12:34:49.280Z,51.46
2023-05-19T12:37:19.774Z,51.07
2023-05-19T12:39:49.292Z,51.41
2023-05-19T12:42:17.873Z,50.99
2023-05-19T12:44:47.527Z,50.14
2023-05-19T12:47:16.716Z,51.68
2023-05-19T12:49:58.036Z,52.03
2023-05-19T12:52:29.091Z,50.90
2023-05-19T12:55:01.090Z,53.60
2023-05-19T12:57:31.654Z,53.00
2023-05-19T13:00:06.913Z,52.58
2023-05-19T13:02:36.884Z,54.41
2023-05-19T13:05:05.908Z,53.02
2023-05-19T13:07:35.782Z,52.50
2023-05-19T13:10:04.239Z,54.58
2023-05-19T13:12:32.478Z,53.83
2023-05-19T13:15:01.276Z,53.29
2023-05-19T13:17:29.666Z,52.53
2023-05-19T13:19:58.406Z,53.11
2023-05-19T13:22:26.723Z,53.87
2023-05-19T13:24:59.008Z,52.97
2023-05-19T13:27:27.697Z,54.22
2023-05-19T13:29:56.006Z,54.90
2023-05-19T13:32:24.676Z,54.27
2023-05-19T13:34:53.032Z,53.53
2023-05-19T13:37:21.630Z,51.46
2023-05-19T13:39:49.930Z,51.59
2023-05-19T13:42:20.030Z,52.74
2023-05-19T13:44:48.370Z,53.17
2023-05-19T13:47:16.862Z,52.47
2023-05-19T13:49:45.263Z,53.82
2023-05-19T13:52:13.573Z,53.70
2023-05-19T13:54:41.859Z,53.42
2023-05-19T13:57:10.680Z,52.92
2023-05-19T13:59:52.942Z,53.09
2023-05-19T14:02:30.511Z,54.44
2023-05-19T14:04:59.069Z,54.64
2023-05-19T14:07:27.305Z,56.42
2023-05-19T14:09:56.327Z,55.56
2023-05-19T14:12:33.921Z,56.21
2023-05-19T14:15:11.587Z,56.67
2023-05-19T14:17:40.090Z,56.80
2023-05-19T14:20:09.677Z,58.28
2023-05-19T14:22:38.412Z,56.73
2023-05-19T14:25:07.541Z,57.08
2023-05-19T14:27:35.797Z,58.96
2023-05-19T14:30:04.130Z,58.82
2023-05-19T14:32:33.876Z,59.51
2023-05-19T14:35:02.258Z,59.04
2023-05-19T14:37:32.001Z,58.91
2023-05-19T14:40:01.298Z,61.44
2023-05-19T14:42:30.342Z,61.63
2023-05-19T14:44:58.620Z,60.19
2023-05-19T14:47:27.502Z,60.83
2023-05-19T14:49:57.592Z,62.81
2023-05-19T14:52:26.363Z,63.06
2023-05-19T14:54:55.933Z,62.96
2023-05-19T14:57:24.208Z,63.04
2023-05-19T14:59:52.519Z,62.58
2023-05-19T15:02:20.871Z,62.86
2023-05-19T15:04:49.338Z,63.31
2023-05-19T15:07:19.021Z,64.11
2023-05-19T15:09:47.342Z,65.30
2023-05-19T15:12:15.634Z,64.58
2023-05-19T15:14:43.937Z,63.90
2023-05-19T15:17:12.526Z,65.02
2023-05-19T15:19:42.846Z,64.59
2023-05-19T15:22:11.124Z,66.22
2023-05-19T15:24:41.354Z,65.52
2023-05-19T15:27:09.708Z,65.01
2023-05-19T15:29:37.948Z,64.88
2023-05-19T15:32:07.376Z,65.75
2023-05-19T15:34:35.590Z,67.37
2023-05-19T15:37:04.602Z,66.83
2023-05-19T15:39:33.725Z,66.29
2023-05-19T15:42:03.399Z,66.47
2023-05-19T15:44:31.673Z,67.39
2023-05-19T15:47:00.525Z,66.84
2023-05-19T15:49:28.791Z,67.26
2023-05-19T15:51:57.046Z,68.22
2023-05-19T15:54:25.325Z,69.12
2023-05-19T15:56:53.551Z,71.04
2023-05-19T15:59:25.708Z,69.53
2023-05-19T16:01:54.034Z,68.61
2023-05-19T16:04:22.795Z,70.29
2023-05-19T16:06:51.380Z,70.93
2023-05-19T16:09:20.118Z,71.99
2023-05-19T16:11:48.382Z,72.10
2023-05-19T16:14:16.661Z,74.21
2023-05-19T16:16:47.655Z,73.48
2023-05-19T16:19:15.993Z,74.09
2023-05-19T16:21:44.262Z,75.21
2023-05-19T16:24:12.505Z,74.28
2023-05-19T16:26:41.185Z,74.72
2023-05-19T16:29:09.474Z,75.69
2023-05-19T16:31:37.791Z,75.45
2023-05-19T16:34:07.532Z,76.61
2023-05-19T16:36:36.544Z,76.41
2023-05-19T16:39:05.059Z,76.93
2023-05-19T16:41:33.637Z,77.06
2023-05-19T16:44:02.490Z,78.65
2023-05-19T16:46:31.645Z,78.37
2023-05-19T16:49:00.067Z,78.67
2023-05-19T16:51:29.759Z,78.13
2023-05-19T16:53:58.252Z,78.32
2023-05-19T16:56:26.544Z,78.10
2023-05-19T16:58:55.180Z,79.55
2023-05-19T17:01:23.508Z,79.48
2023-05-19T17:03:51.907Z,80.11
2023-05-19T17:06:20.444Z,80.35
2023-05-19T17:08:50.463Z,79.27
2023-05-19T17:11:18.750Z,80.82
2023-05-19T17:13:47.025Z,80.98
2023-05-19T17:16:15.370Z,79.88
2023-05-19T17:18:46.651Z,80.69
2023-05-19T17:21:15.460Z,81.11
2023-05-19T17:23:43.709Z,80.99
2023-05-19T17:26:13.373Z,81.78
2023-05-19T17:28:41.621Z,82.71
2023-05-19T17:31:13.236Z,83.34
2023-05-19T17:33:41.493Z,82.84
2023-05-19T17:36:10.151Z,83.65
2023-05-19T17:38:40.444Z,84.41
2023-05-19T17:41:10.998Z,84.06
2023-05-19T17:43:41.414Z,83.77
2023-05-19T17:46:09.765Z,83.61
2023-05-19T17:48:38.286Z,83.09
2023-05-19T17:51:07.503Z,83.80
2023-05-19T17:53:36.653Z,84.73
2023-05-19T17:56:06.613Z,85.63
2023-05-19T17:58:35.607Z,85.04
2023-05-19T18:01:06.173Z,86.27
2023-05-19T18:03:35.165Z,86.18
2023-05-19T18:06:03.646Z,86.60
2023-05-19T18:08:32.619Z,87.07
2023-05-19T18:11:00.932Z,86.70
2023-05-19T18:13:29.201Z,86.84
2023-05-19T18:15:59.754Z,87.08
2023-05-19T18:18:29.491Z,87.06
2023-05-19T18:20:57.768Z,87.44
2023-05-19T18:23:26.032Z,88.11
2023-05-19T18:25:54.370Z,88.83
2023-05-19T18:28:22.592Z,88.35
2023-05-19T18:31:00.185Z,88.77
2023-05-19T18:33:30.945Z,89.38
2023-05-19T18:35:59.655Z,89.36
2023-05-19T18:38:27.965Z,90.22
2023-05-19T18:40:56.800Z,90.53
2023-05-19T18:43:25.463Z,90.58
2023-05-19T18:45:53.706Z,90.39
2023-05-19T18:48:22.604Z,90.96
2023-05-19T18:50:52.423Z,90.66
2023-05-19T18:53:22.265Z,91.55
2023-05-19T18:55:50.464Z,91.60
2023-05-19T18:58:18.995Z,91.92
2023-05-19T19:00:47.428Z,91.43
2023-05-19T19:03:15.982Z,92.30
2023-05-19T19:05:45.380Z,92.53
2023-05-19T19:08:15.016Z,92.92
2023-05-19T19:10:44.455Z,92.92
2023-05-19T19:13:12.730Z,92.68
2023-05-19T19:15:41.037Z,92.86
2023-05-19T19:18:09.403Z,93.71
2023-05-19T19:20:37.711Z,93.42
2023-05-19T19:23:06.841Z,93.56
2023-05-19T19:25:36.587Z,93.51
2023-05-19T19:28:04.973Z,93.91
2023-05-19T19:30:33.450Z,93.98
2023-05-19T19:33:02.411Z,94.24
2023-05-19T19:35:31.844Z,94.67
2023-05-19T19:38:00.425Z,94.22
2023-05-19T19:40:29.379Z,95.03
2023-05-19T19:42:59.059Z,94.64
2023-05-19T19:45:27.273Z,95.08
2023-05-19T19:47:55.659Z,94.96
2023-05-19T19:50:23.962Z,95.05
2023-05-19T19:52:52.985Z,94.55
2023-05-19T19:55:21.265Z,95.50
2023-05-19T19:57:51.242Z,95.38
2023-05-19T20:00:21.551Z,95.64
2023-05-19T20:03:03.565Z,95.76
2023-05-19T20:05:32.712Z,95.56
2023-05-19T20:08:01.207Z,96.17
2023-05-19T20:10:29.590Z,96.23
2023-05-19T20:12:59.345Z,96.11
2023-05-19T20:15:28.995Z,96.01
2023-05-19T20:17:57.509Z,96.32
2023-05-19T20:20:25.785Z,96.69
2023-05-19T20:22:54.049Z,97.16
2023-05-19T20:25:22.440Z,97.10
2023-05-19T20:27:50.738Z,96.50
2023-05-19T20:30:19.264Z,97.24
2023-05-19T20:32:49.212Z,96.90
2023-05-19T20:35:17.542Z,97.62
2023-05-19T20:37:45.845Z,97.28
2023-05-19T20:40:14.206Z,97.73
2023-05-19T20:42:42.514Z,98.28
2023-05-19T20:45:11.609Z,97.98
2023-05-19T20:47:39.921Z,97.96
2023-05-19T20:50:10.194Z,97.87
2023-05-19T20:52:38.459Z,97.85
2023-05-19T20:55:07.136Z,98.13
2023-05-19T20:57:35.874Z,98.33
2023-05-19T21:00:04.882Z,98.66
2023-05-19T21:02:33.220Z,98.60
2023-05-19T21:05:01.713Z,98.76
2023-05-19T21:07:31.511Z,98.96
2023-05-19T21:09:59.748Z,98.88
2023-05-19T21:12:33.962Z,99.36
2023-05-19T21:15:03.678Z,99.09
2023-05-19T21:17:32.180Z,99.63
2023-05-19T21:20:01.237Z,99.41
2023-05-19T21:22:29.563Z,99.49
2023-05-19T21:24:59.523Z,100.00
2023-05-19T21:27:28.042Z,100.00
2023-05-19T21:29:56.482Z,100.00
2023-05-19T21:32:25.019Z,100.00
2023-05-19T21:34:53.354Z,100.00
2023-05-19T21:37:21.801Z,100.00
2023-05-19T21:39:52.531Z,100.00
2023-05-19T21:42:22.250Z,100.00
2023-05-19T21:44:50.555Z,100.00
2023-05-19T21:47:18.829Z,100.00
2023-05-19T21:49:47.144Z,100.00
2023-05-19T21:52:15.688Z,100.00
2023-05-19T21:54:44.234Z,100.00
2023-05-19T21:57:13.140Z,100.00
2023-05-19T21:59:43.742Z,100.00
2023-05-19T22:02:12.039Z,100.00
2023-05-19T22:04:40.383Z,100.00
2023-05-19T22:07:09.272Z,100.00
2023-05-19T22:09:38.061Z,100.00
2023-05-19T22:12:07.164Z,100.00
2023-05-19T22:14:35.443Z,100.00
2023-05-19T22:17:05.277Z,100.00
2023-05-19T22:19:33.604Z,100.00
2023-05-19T22:22:13.178Z,100.00
2023-05-19T22:24:42.312Z,100.00
2023-05-19T22:27:10.555Z,100.00
2023-05-19T22:29:39.222Z,100.00
2023-05-19T22:32:12.076Z,100.00
2023-05-19T22:34:40.875Z,100.00
2023-05-19T22:37:09.228Z,100.00
2023-05-19T22:39:37.537Z,100.00
2023-05-19T22:42:06.153Z,100.00
2023-05-19T22:44:34.484Z,100.00
2023-05-19T22:47:02.782Z,100.00
2023-05-19T22:49:32.718Z,100.00
2023-05-19T22:52:01.043Z,100.00
2023-05-19T22:54:29.309Z,100.00
2023-05-19T22:56:57.556Z,100.00
2023-05-19T22:59:25.786Z,100.00
2023-05-19T23:01:54.112Z,100.00
2023-05-19T23:04:22.439Z,100.00
2023-05-19T23:06:52.367Z,100.00
2023-05-19T23:09:20.732Z,100.00
2023-05-19T23:11:49.036Z,100.00
2023-05-19T23:14:18.573Z,100.00
2023-05-19T23:16:46.924Z,100.00
2023-05-19T23:19:15.287Z,100.00
2023-05-19T23:21:44.628Z,100.00
2023-05-19T23:24:14.341Z,100.00
2023-05-19T23:26:43.923Z,100.00
2023-05-19T23:29:13.550Z,100.00
2023-05-19T23:31:42.085Z,100.00
2023-05-19T23:34:10.574Z,100.00
2023-05-19T23:36:38.856Z,100.00
2023-05-19T23:39:07.171Z,100.00
2023-05-19T23:41:36.835Z,100.00
2023-05-19T23:44:05.456Z,100.00
2023-05-19T23:46:34.273Z,100.00
2023-05-19T23:49:02.573Z,100.00
2023-05-19T23:51:31.395Z,100.00
2023-05-19T23:53:59.960Z,100.00
2023-05-19T23:56:28.477Z,100.00
2023-05-19T23:58:58.316Z,100.00
